Flight Track Log - Related Links

Times and Time Zones

All times are in EDT time to prevent confusion due to time zone crossing. See the PDT4205 flight status page for this flight to view local times or setup timezone preferences in your user account.

Time Position Orientation Groundspeed Altitude Reporting Facility
EDT Latitude Longitude Course Direction KTS MPH feet Rate Location/Type
Tue 02:38:33 PM 32.3297 -80.6183 30° Northeast 175 201 3,800  Level Jacksonville Center
Tue 02:39:33 PM 32.3772 -80.5853 30° Northeast 170 196 4,900 1,150 Climbing Jacksonville Center
Tue 02:40:33 PM 32.4164 -80.5597 29° Northeast 170 196 6,100 1,200 Climbing Jacksonville Center
Tue 02:41:33 PM 32.4703 -80.5386 18° North 178 205 7,300 1,100 Climbing Jacksonville Center
Tue 02:42:33 PM 32.5203 -80.5347 North 178 205 8,300 900 Climbing Jacksonville Center
Tue 02:43:33 PM 32.5664 -80.5336 North 178 205 9,100 850 Climbing Jacksonville Center
Tue 02:44:33 PM 32.6181 -80.5150 17° North 178 205 10,000 900 Climbing Jacksonville Center
Tue 02:45:33 PM 32.6681 -80.5111 North 179 206 10,900 800 Climbing Jacksonville Center
Tue 02:46:33 PM 32.7222 -80.5072 North 179 206 11,600 650 Climbing Jacksonville Center
Tue 02:47:33 PM 32.7744 -80.5033 North 179 206 12,200 700 Climbing Jacksonville Center
Tue 02:48:33 PM 32.8267 -80.4994 North 179 206 13,000 650 Climbing Jacksonville Center
Tue 02:49:33 PM 32.8789 -80.5031 357° North 179 206 13,500 600 Climbing Jacksonville Center
Tue 02:50:33 PM 32.9331 -80.5042 359° North 179 206 14,200 550 Climbing Jacksonville Center
Tue 02:51:33 PM 32.9872 -80.4928 10° North 179 206 14,600 350 Climbing Jacksonville Center
Tue 02:52:33 PM 33.0456 -80.4939 359° North 189 217 14,900 150 Climbing Jacksonville Center
Tue 02:53:33 PM 33.1039 -80.4847 North 199 229 14,900  Level Jacksonville Center
Tue 02:54:33 PM 33.1661 -80.4683 12° North 209 241 14,900  Level Jacksonville Center
Tue 02:55:33 PM 33.2161 -80.4644 North 220 253 14,900  Level Jacksonville Center
Tue 02:56:33 PM 33.2828 -80.4600 North 220 253 14,900  Level Jacksonville Center
Tue 02:57:33 PM 33.3383 -80.4164 33° Northeast 220 253 14,900  Level Jacksonville Center
Tue 02:58:33 PM 33.3917 -80.3725 34° Northeast 220 253 14,900  Level Jacksonville Center
Tue 02:59:33 PM 33.4450 -80.3261 36° Northeast 232 267 14,900  Level Jacksonville Center
Tue 03:00:33 PM 33.4983 -80.2797 36° Northeast 238 274 14,900  Level Jacksonville Center
Tue 03:01:33 PM 33.5539 -80.2383 32° Northeast 238 274 14,900  Level Jacksonville Center
Tue 03:02:33 PM 33.6072 -80.1919 36° Northeast 233 268 14,900  Level Jacksonville Center
Tue 03:03:33 PM 33.6625 -80.1453 35° Northeast 233 268 14,900 50 Level Jacksonville Center
Tue 03:04:33 PM 33.7178 -80.1011 34° Northeast 233 268 15,000 -50 Climbing Jacksonville Center
Tue 03:05:33 PM 33.7711 -80.0519 37° Northeast 233 268 14,800 -350 Descending Jacksonville Center
Tue 03:06:33 PM 33.8283 -80.0075 33° Northeast 233 268 14,300 -500 Descending Jacksonville Center
Tue 03:07:33 PM 33.8856 -79.9481 41° Northeast 244 281 13,800 -550 Descending Jacksonville Center
Tue 03:08:33 PM 33.9481 -79.9436 North 216 249 13,200 -600 Descending Jacksonville Center
Tue 03:09:33 PM 34.0094 -79.9814 333° Northwest 216 249 12,600 -650 Descending Jacksonville Center
Tue 03:10:33 PM 34.0767 -80.0094 341° North 230 265 11,900 -700 Descending Jacksonville Center
Tue 03:11:33 PM 34.1400 -80.0425 337° Northwest 243 280 11,200 -700 Descending Jacksonville Center
Tue 03:12:33 PM 34.2056 -80.0703 341° North 249 287 10,500 -650 Descending Jacksonville Center
Tue 03:13:33 PM 34.2708 -80.1058 336° Northwest 249 287 9,900 -300 Descending Jacksonville Center
Tue 03:14:33 PM 34.3322 -80.1367 337° Northwest 244 281 9,900  Level Jacksonville Center
Tue 03:15:33 PM 34.3953 -80.1597 343° North 239 275 9,900  Level Jacksonville Center
Tue 03:16:33 PM 34.4564 -80.1881 339° North 234 269 9,900  Level Jacksonville Center
Tue 03:17:33 PM 34.5153 -80.2167 338° Northwest 234 269 9,900 27 Level Jacksonville Center
Tue 03:20:18 PM 34.6767 -80.3031 336° Northwest 230 265 10,000 27 Climbing Atlanta Center
Tue 03:21:13 PM 34.7136 -80.3569 310° West 228 262 10,000  Level Atlanta Center
Tue 03:22:26 PM 34.7700 -80.4228 316° Northwest 227 261 10,000  Level Atlanta Center
Tue 03:23:27 PM 34.8133 -80.4767 314° West 227 261 10,000  Level Atlanta Center
Tue 03:24:28 PM 34.8628 -80.5278 320° Northwest 227 261 10,000  Level Atlanta Center
Tue 03:25:29 PM 34.9061 -80.5917 310° West 228 262 10,000  Level Atlanta Center
Tue 03:26:30 PM 34.9517 -80.6456 316° Northwest 229 264 10,000  Level Atlanta Center
Tue 03:27:31 PM 34.9928 -80.7022 312° West 230 265 10,000  Level Atlanta Center
Tue 03:28:32 PM 35.0400 -80.7561 317° Northwest 229 264 10,000 -393 Level Atlanta Center
Tue 03:29:33 PM 35.0897 -80.8203 313° West 241 277 9,200 -492 Descending Atlanta Center
Tue 03:30:34 PM 35.1589 -80.8303 353° North 255 293 9,000 -103 Descending Atlanta Center
Tue 03:31:29 PM 35.2194 -80.8356 356° North 239 275 9,000 -885 Level Atlanta Center
Tue 03:32:36 PM 35.2947 -80.8428 356° North 257 296 7,200 -1,734 Descending Atlanta Center
Tue 03:33:37 PM 35.3703 -80.8525 354° North 253 291 5,300 -1,862 Descending Atlanta Center
Tue 03:34:32 PM 35.4008 -80.9075 304° West 247 284 3,600 -1,190 Descending Atlanta Center
Tue 03:35:33 PM 35.3497 -80.9475 213° Southwest 232 267 3,000 -793 Descending Atlanta Center
Tue 03:36:33 PM 35.2956 -80.9469 180° South 185 213 2,000 -887 Descending Atlanta Center
Tue 03:37:28 PM 35.2558 -80.9433 176° South 132 152 1,300 -764 Descending Atlanta Center

Login

Don't have an account? Register now (free) for customized features, flight alerts, and more!